Time;durP1;ratioP1;P1;durP2;ratioP2;P2;SDS_P1;SDS_P2;PMS_P1;PMS_P2;Temp;Humidity;BMP_temperature;BMP_pressure;BME280_temperature;BME280_humidity;BME280_pressure;Samples;Min_cycle;Max_cycle;Signal;HPM_P1;HPM_P2
2022/02/14 00:00:18;;;;;;;7.40;2.53;;;11.90;99.90;;;;;;5055106;28;20211;-78
2022/02/14 00:02:44;;;;;;;2.60;1.90;;;11.80;99.90;;;;;;5036187;28;20192;-84
2022/02/14 00:05:10;;;;;;;8.27;2.90;;;11.70;99.90;;;;;;5053988;28;20651;-83
2022/02/14 00:07:35;;;;;;;7.43;2.50;;;11.80;99.90;;;;;;5054510;28;20163;-80
2022/02/14 00:10:01;;;;;;;3.70;2.28;;;11.80;99.90;;;;;;5053643;28;20179;-85
2022/02/14 00:12:27;;;;;;;5.53;2.05;;;11.90;99.90;;;;;;5036232;28;20167;-85
2022/02/14 00:14:53;;;;;;;10.98;2.42;;;11.80;99.90;;;;;;5053749;28;20191;-85
2022/02/14 00:17:20;;;;;;;6.68;2.35;;;11.90;99.90;;;;;;5053711;28;20263;-85
2022/02/14 00:19:50;;;;;;;8.50;2.28;;;11.80;99.90;;;;;;5035802;28;20198;-84
2022/02/14 00:22:21;;;;;;;3.00;1.83;;;11.80;99.90;;;;;;5054165;28;20522;-85
2022/02/14 00:24:54;;;;;;;2.85;1.63;;;11.80;99.90;;;;;;5054196;28;20224;-85
2022/02/14 00:27:20;;;;;;;5.93;1.80;;;11.90;99.90;;;;;;5058573;28;20174;-86
2022/02/14 00:29:47;;;;;;;7.00;1.75;;;11.90;99.90;;;;;;5054853;28;20183;-79
2022/02/14 00:32:15;;;;;;;6.07;2.10;;;11.90;99.90;;;;;;5054630;28;20628;-79
2022/02/14 00:34:41;;;;;;;7.13;1.60;;;11.90;99.90;;;;;;5037848;28;20193;-77
2022/02/14 00:37:08;;;;;;;11.43;2.05;;;11.90;99.90;;;;;;5053869;28;20175;-78
2022/02/14 00:39:33;;;;;;;5.28;2.03;;;12.00;99.90;;;;;;5054679;28;20202;-82
2022/02/14 00:42:00;;;;;;;4.90;2.08;;;12.00;99.90;;;;;;5054919;28;20585;-78
2022/02/14 00:44:26;;;;;;;4.65;1.60;;;12.00;99.90;;;;;;5069279;28;20175;-79
2022/02/14 00:46:52;;;;;;;7.95;1.67;;;12.00;99.90;;;;;;5075644;28;21166;-82
2022/02/14 00:49:17;;;;;;;2.25;1.48;;;12.00;99.90;;;;;;5077456;28;20187;-81
2022/02/14 00:51:43;;;;;;;3.50;1.70;;;12.10;99.90;;;;;;5062473;28;20191;-84
2022/02/14 00:54:09;;;;;;;10.88;2.35;;;12.10;99.90;;;;;;5055225;28;20186;-83
2022/02/14 00:56:34;;;;;;;5.57;1.40;;;12.10;99.90;;;;;;5054484;28;20174;-82
2022/02/14 00:59:00;;;;;;;9.07;2.00;;;12.10;99.90;;;;;;5037590;28;20167;-85
2022/02/14 01:01:28;;;;;;;4.82;2.17;;;12.00;99.90;;;;;;5056355;28;20534;-85
2022/02/14 01:03:54;;;;;;;7.03;1.98;;;12.00;99.90;;;;;;5056000;28;20717;-82
2022/02/14 01:06:19;;;;;;;5.05;1.27;;;11.90;99.90;;;;;;5056321;28;20187;-83
2022/02/14 01:08:45;;;;;;;2.17;1.42;;;12.00;99.90;;;;;;5056129;28;20160;-86
2022/02/14 01:11:11;;;;;;;6.47;1.83;;;12.00;99.90;;;;;;5055489;28;20183;-85
2022/02/14 01:13:36;;;;;;;3.33;1.48;;;11.90;99.90;;;;;;5055332;28;20183;-83
2022/02/14 01:16:02;;;;;;;3.40;1.48;;;11.90;99.90;;;;;;5054196;28;20171;-81
2022/02/14 01:18:28;;;;;;;5.57;1.30;;;11.90;99.90;;;;;;5057041;28;20159;-86
2022/02/14 01:20:54;;;;;;;7.38;1.73;;;11.90;99.90;;;;;;5055509;28;20538;-86
2022/02/14 01:23:19;;;;;;;4.40;1.60;;;11.90;99.90;;;;;;5055574;28;20183;-86
2022/02/14 01:25:46;;;;;;;9.27;2.33;;;11.90;99.90;;;;;;5056102;28;20225;-86
2022/02/14 01:28:12;;;;;;;8.18;1.88;;;11.90;99.90;;;;;;5055113;28;20186;-80
2022/02/14 01:30:38;;;;;;;8.23;1.42;;;11.90;99.90;;;;;;5055328;28;20229;-86
2022/02/14 01:33:04;;;;;;;6.68;1.70;;;12.00;99.90;;;;;;5056328;28;20553;-86
2022/02/14 01:35:30;;;;;;;2.92;1.60;;;11.90;99.90;;;;;;5057364;28;20514;-86
2022/02/14 01:37:56;;;;;;;10.00;1.85;;;11.90;99.90;;;;;;5054926;28;20213;-83
2022/02/14 01:40:22;;;;;;;3.10;1.83;;;12.00;99.90;;;;;;5055207;28;20706;-84
2022/02/14 01:42:48;;;;;;;5.72;1.40;;;12.00;99.90;;;;;;5062823;28;20151;-82
2022/02/14 01:45:14;;;;;;;3.58;1.40;;;11.90;99.90;;;;;;5071631;28;20180;-80
2022/02/14 01:47:40;;;;;;;4.18;1.35;;;11.90;99.90;;;;;;5073789;28;20164;-84
2022/02/14 01:50:08;;;;;;;6.20;1.55;;;11.90;99.90;;;;;;5077452;28;20181;-83
2022/02/14 01:52:35;;;;;;;2.03;1.33;;;11.80;99.90;;;;;;5064474;28;20167;-85
2022/02/14 01:55:03;;;;;;;1.70;1.50;;;11.80;99.90;;;;;;5060148;28;20175;-85
2022/02/14 01:57:28;;;;;;;4.38;1.80;;;11.80;99.90;;;;;;5059864;28;20167;-85
2022/02/14 01:59:55;;;;;;;3.92;1.20;;;11.80;99.90;;;;;;5058377;28;20199;-86
2022/02/14 02:02:20;;;;;;;9.05;1.70;;;11.80;99.90;;;;;;5041575;28;20167;-87
2022/02/14 02:04:46;;;;;;;2.42;1.27;;;11.80;99.90;;;;;;5059003;28;20240;-82
2022/02/14 02:07:15;;;;;;;2.65;1.70;;;11.80;99.90;;;;;;5057484;28;20222;-84
2022/02/14 02:09:45;;;;;;;7.40;2.53;;;11.80;99.90;;;;;;5057690;28;20177;-85
2022/02/14 02:12:25;;;;;;;2.95;1.58;;;11.90;99.90;;;;;;5057358;28;20160;-85
2022/02/14 02:14:53;;;;;;;3.60;1.75;;;11.90;99.90;;;;;;5057753;28;20194;-86
2022/02/14 02:17:19;;;;;;;1.50;1.20;;;11.80;99.90;;;;;;5058757;28;20163;-85
2022/02/14 02:19:46;;;;;;;4.47;1.40;;;11.70;99.90;;;;;;5058717;28;20207;-84
2022/02/14 02:22:12;;;;;;;6.53;1.77;;;11.70;99.90;;;;;;5058426;28;20166;-86
2022/02/14 02:24:54;;;;;;;6.30;1.58;;;11.70;99.90;;;;;;5058979;28;20195;-85
2022/02/14 02:27:25;;;;;;;8.73;1.70;;;11.70;99.90;;;;;;5059023;28;20207;-85
2022/02/14 02:29:53;;;;;;;5.45;1.85;;;11.80;99.90;;;;;;5058338;28;20178;-85
2022/02/14 02:32:19;;;;;;;3.40;1.52;;;11.90;99.90;;;;;;5040983;28;20172;-86
2022/02/14 02:34:45;;;;;;;1.90;1.10;;;11.90;99.90;;;;;;5057952;28;20194;-86
2022/02/14 02:37:13;;;;;;;6.20;1.38;;;11.90;99.90;;;;;;5041357;28;20514;-85
2022/02/14 02:39:39;;;;;;;1.63;1.40;;;11.90;99.90;;;;;;5042774;28;20194;-86
2022/02/14 02:42:06;;;;;;;3.60;1.55;;;11.90;99.90;;;;;;5058917;28;20147;-86
2022/02/14 02:44:33;;;;;;;4.55;1.52;;;11.90;99.90;;;;;;5058759;28;20237;-85
2022/02/14 02:47:00;;;;;;;12.48;1.63;;;11.90;99.90;;;;;;5058868;28;20250;-84
2022/02/14 02:49:27;;;;;;;7.00;1.67;;;12.00;99.90;;;;;;5057674;28;20163;-85
2022/02/14 02:51:53;;;;;;;12.20;1.50;;;12.00;99.90;;;;;;5039445;28;20217;-86
2022/02/14 02:54:20;;;;;;;2.83;1.40;;;11.90;99.90;;;;;;5058329;28;20215;-85
2022/02/14 02:56:48;;;;;;;2.95;1.40;;;12.00;99.90;;;;;;5057146;28;20168;-86
2022/02/14 02:59:13;;;;;;;7.03;1.33;;;12.00;99.90;;;;;;5057173;28;20163;-85
2022/02/14 03:01:41;;;;;;;2.35;1.40;;;11.90;99.90;;;;;;5056711;28;20254;-84
2022/02/14 03:04:10;;;;;;;3.35;1.30;;;11.90;99.90;;;;;;5061159;28;20284;-86
2022/02/14 03:06:36;;;;;;;4.68;1.10;;;11.80;99.90;;;;;;5057394;28;20230;-85
2022/02/14 03:09:02;;;;;;;3.88;1.20;;;11.80;99.90;;;;;;5059138;28;20632;-86
2022/02/14 03:11:28;;;;;;;2.97;1.60;;;11.80;99.90;;;;;;5058447;28;20231;-83
2022/02/14 03:13:54;;;;;;;7.22;1.48;;;11.80;99.90;;;;;;5060049;28;20203;-84
2022/02/14 03:16:20;;;;;;;2.53;1.30;;;11.80;99.90;;;;;;5058649;28;20174;-81
2022/02/14 03:18:47;;;;;;;4.97;1.65;;;11.80;99.90;;;;;;5059458;28;20171;-85
2022/02/14 03:21:14;;;;;;;3.70;1.58;;;11.90;99.90;;;;;;5042019;28;20245;-77
2022/02/14 03:23:41;;;;;;;3.40;1.77;;;11.80;99.90;;;;;;5074360;28;20210;-83
2022/02/14 03:26:07;;;;;;;6.18;1.38;;;11.80;99.90;;;;;;5059251;28;20171;-84
2022/02/14 03:28:33;;;;;;;5.93;1.42;;;11.80;99.90;;;;;;5077700;28;20187;-85
2022/02/14 03:31:00;;;;;;;2.75;1.10;;;11.80;99.90;;;;;;5064827;28;20667;-85
2022/02/14 03:33:26;;;;;;;4.22;1.58;;;11.80;99.90;;;;;;5059507;28;20191;-84
2022/02/14 03:35:52;;;;;;;5.55;1.60;;;11.80;99.90;;;;;;5058860;28;20221;-86
2022/02/14 03:38:18;;;;;;;12.20;1.10;;;11.90;99.90;;;;;;5040943;28;20175;-85
2022/02/14 03:40:45;;;;;;;6.68;1.33;;;11.80;99.90;;;;;;5040616;28;20641;-85
2022/02/14 03:43:11;;;;;;;7.32;1.33;;;11.80;99.90;;;;;;5057647;28;20210;-83
2022/02/14 03:45:40;;;;;;;9.43;1.10;;;11.80;99.90;;;;;;5057727;28;20167;-85
2022/02/14 03:48:07;;;;;;;3.55;1.35;;;11.80;99.90;;;;;;5058182;28;20572;-86
2022/02/14 03:50:33;;;;;;;3.17;1.30;;;11.80;99.90;;;;;;5057394;28;20168;-87
2022/02/14 03:52:59;;;;;;;3.15;1.30;;;11.90;99.90;;;;;;5057389;28;20520;-86
2022/02/14 03:55:24;;;;;;;5.70;1.40;;;12.00;99.90;;;;;;5057367;28;20175;-83
2022/02/14 03:57:51;;;;;;;1.42;1.20;;;12.00;99.90;;;;;;5058491;28;20155;-86
2022/02/14 04:00:19;;;;;;;3.03;1.38;;;12.10;99.90;;;;;;5058002;28;20195;-83
2022/02/14 04:02:45;;;;;;;3.63;1.08;;;12.00;99.90;;;;;;5057429;28;20221;-86
2022/02/14 04:05:12;;;;;;;4.13;1.60;;;12.00;99.90;;;;;;5057935;28;20194;-86
2022/02/14 04:07:38;;;;;;;4.88;1.48;;;12.00;99.90;;;;;;5058980;28;20162;-86
2022/02/14 04:10:05;;;;;;;7.50;1.42;;;12.00;99.90;;;;;;5058880;28;20159;-82
2022/02/14 04:12:31;;;;;;;1.95;1.27;;;12.10;99.90;;;;;;5057452;28;20167;-85
2022/02/14 04:14:57;;;;;;;2.47;1.40;;;12.00;99.90;;;;;;5039320;28;20655;-85
2022/02/14 04:17:22;;;;;;;5.90;1.80;;;12.00;99.90;;;;;;5057440;28;20175;-87
2022/02/14 04:19:48;;;;;;;5.03;1.45;;;12.00;99.90;;;;;;5057062;28;20214;-83
2022/02/14 04:22:14;;;;;;;3.45;1.52;;;12.10;99.90;;;;;;5056844;28;20190;-85
2022/02/14 04:24:39;;;;;;;9.95;1.55;;;12.00;99.90;;;;;;5054869;28;20236;-87
2022/02/14 04:27:05;;;;;;;10.05;1.42;;;12.00;99.90;;;;;;5055462;28;20170;-84
2022/02/14 04:29:39;;;;;;;3.13;1.40;;;12.10;99.90;;;;;;5057015;28;20171;-79
2022/02/14 04:32:05;;;;;;;2.72;1.27;;;12.10;99.90;;;;;;5063431;28;20597;-83
2022/02/14 04:34:30;;;;;;;4.97;1.42;;;12.10;99.90;;;;;;5075085;28;20183;-83
2022/02/14 04:36:56;;;;;;;9.48;1.38;;;12.00;99.90;;;;;;5077242;28;20249;-84
2022/02/14 04:39:22;;;;;;;6.45;1.15;;;12.00;99.90;;;;;;5075652;28;20548;-84
2022/02/14 04:41:47;;;;;;;2.20;1.40;;;12.10;99.90;;;;;;5076115;28;20227;-85
2022/02/14 04:44:14;;;;;;;1.75;1.33;;;12.00;99.90;;;;;;5077331;28;20305;-85
2022/02/14 04:46:39;;;;;;;3.75;1.98;;;12.10;99.90;;;;;;5058588;28;20508;-86
2022/02/14 04:49:06;;;;;;;3.90;1.45;;;12.10;99.90;;;;;;5076587;28;20162;-85
2022/02/14 04:51:33;;;;;;;5.97;1.67;;;12.00;99.90;;;;;;5076733;28;20258;-80
2022/02/14 04:54:01;;;;;;;1.58;1.35;;;11.90;99.90;;;;;;5076066;28;20198;-87
2022/02/14 04:56:27;;;;;;;2.30;1.33;;;11.90;99.90;;;;;;5076548;28;20206;-82
2022/02/14 04:58:52;;;;;;;3.20;1.40;;;12.00;99.90;;;;;;5075940;28;20170;-84
2022/02/14 05:01:18;;;;;;;3.33;1.35;;;11.90;99.90;;;;;;5076166;28;20297;-83
2022/02/14 05:03:44;;;;;;;9.98;1.48;;;11.90;99.90;;;;;;5075748;28;20214;-86
2022/02/14 05:06:10;;;;;;;3.22;1.58;;;11.90;99.90;;;;;;5075585;28;20593;-85
2022/02/14 05:08:35;;;;;;;5.63;1.55;;;11.90;99.90;;;;;;5075976;28;20201;-85
2022/02/14 05:11:02;;;;;;;1.77;1.13;;;12.00;99.90;;;;;;5057938;28;20599;-82
2022/02/14 05:13:28;;;;;;;3.13;1.88;;;11.90;99.90;;;;;;5057397;28;20193;-84
2022/02/14 05:15:53;;;;;;;1.75;1.08;;;11.80;99.90;;;;;;5075867;28;20167;-85
2022/02/14 05:18:19;;;;;;;5.93;1.48;;;11.80;99.90;;;;;;5075860;28;20169;-84
2022/02/14 05:20:45;;;;;;;3.85;1.23;;;11.80;99.90;;;;;;5074864;28;20260;-78
2022/02/14 05:23:10;;;;;;;5.40;1.60;;;11.90;99.90;;;;;;5076706;28;20655;-82
2022/02/14 05:25:36;;;;;;;1.88;1.30;;;11.80;99.90;;;;;;5079627;28;20166;-82
2022/02/14 05:28:09;;;;;;;2.42;1.20;;;11.90;99.90;;;;;;5079553;28;20209;-85
2022/02/14 05:30:36;;;;;;;4.55;1.30;;;11.90;99.90;;;;;;5078674;28;20623;-82
2022/02/14 05:33:02;;;;;;;1.88;1.55;;;11.90;99.90;;;;;;5061756;28;20609;-86
2022/02/14 05:35:28;;;;;;;2.95;1.60;;;11.90;99.90;;;;;;5079346;28;20627;-85
2022/02/14 05:37:54;;;;;;;3.20;1.40;;;11.80;99.90;;;;;;5079522;28;20170;-85
2022/02/14 05:40:20;;;;;;;4.53;1.90;;;11.80;99.90;;;;;;5084716;28;20258;-81
2022/02/14 05:42:46;;;;;;;30.67;2.03;;;11.90;99.90;;;;;;5084266;28;20163;-83
2022/02/14 05:45:12;;;;;;;4.85;1.50;;;11.80;99.90;;;;;;5083012;28;20188;-79
2022/02/14 05:47:37;;;;;;;3.38;1.17;;;11.80;99.90;;;;;;5063541;28;20623;-82
2022/02/14 05:50:05;;;;;;;5.60;1.70;;;11.80;99.90;;;;;;5079634;28;20177;-78
2022/02/14 05:52:30;;;;;;;7.07;1.40;;;11.80;99.90;;;;;;5078907;28;20519;-86
2022/02/14 05:54:56;;;;;;;2.50;1.35;;;11.90;99.90;;;;;;5062235;28;20253;-85
2022/02/14 05:57:22;;;;;;;3.63;1.05;;;11.90;99.90;;;;;;5062570;28;20248;-84
2022/02/14 05:59:49;;;;;;;2.13;1.33;;;11.90;99.90;;;;;;5091461;28;20258;-80
2022/02/14 06:02:15;;;;;;;1.92;1.63;;;11.80;99.90;;;;;;5078029;28;20178;-78
2022/02/14 06:04:41;;;;;;;4.15;1.42;;;11.80;99.90;;;;;;5098371;28;20198;-80
2022/02/14 06:07:07;;;;;;;8.27;1.80;;;11.70;99.90;;;;;;5087751;28;20631;-85
2022/02/14 06:09:33;;;;;;;5.47;1.83;;;11.60;99.90;;;;;;5073258;28;20238;-82
2022/02/14 06:11:59;;;;;;;1.70;1.55;;;11.50;99.90;;;;;;5095178;28;20167;-83
2022/02/14 06:14:25;;;;;;;2.38;1.95;;;11.50;99.90;;;;;;5095953;28;20244;-78
2022/02/14 06:16:51;;;;;;;2.65;2.05;;;11.40;99.90;;;;;;5087879;28;20163;-84
2022/02/14 06:19:18;;;;;;;3.38;1.75;;;11.40;99.90;;;;;;5081425;28;20259;-82
2022/02/14 06:21:44;;;;;;;9.52;1.70;;;11.30;99.90;;;;;;5082132;28;20166;-86
2022/02/14 06:24:09;;;;;;;2.40;1.58;;;11.30;99.90;;;;;;5078580;28;20285;-87
2022/02/14 06:26:35;;;;;;;4.18;1.40;;;11.20;99.90;;;;;;5078902;28;20263;-83
2022/02/14 06:29:03;;;;;;;2.80;1.75;;;11.20;99.90;;;;;;5060349;28;20210;-84
2022/02/14 06:31:29;;;;;;;2.40;1.48;;;11.20;99.90;;;;;;5077511;28;20252;-85
2022/02/14 06:33:55;;;;;;;3.45;1.88;;;11.00;99.90;;;;;;5077883;28;20243;-82
2022/02/14 06:36:23;;;;;;;2.35;1.80;;;11.00;99.90;;;;;;5060227;28;20171;-84
2022/02/14 06:38:49;;;;;;;1.60;1.50;;;10.90;99.90;;;;;;5066724;28;20162;-84
2022/02/14 06:41:16;;;;;;;3.58;1.30;;;10.80;99.90;;;;;;5077214;28;20210;-81
2022/02/14 06:43:41;;;;;;;2.47;1.48;;;10.70;99.90;;;;;;5077131;28;20213;-86
2022/02/14 06:46:07;;;;;;;2.92;1.92;;;10.70;99.90;;;;;;5058773;28;20170;-79
2022/02/14 06:48:33;;;;;;;7.65;1.00;;;10.70;99.90;;;;;;5075826;28;20209;-82
2022/02/14 06:50:59;;;;;;;0.80;0.80;;;10.70;99.90;;;;;;5076448;28;20519;-83
2022/02/14 06:53:26;;;;;;;2.05;0.93;;;10.60;99.90;;;;;;5078187;28;20190;-84
2022/02/14 06:55:54;;;;;;;1.50;1.15;;;10.60;99.90;;;;;;5076380;28;20163;-85
2022/02/14 06:58:21;;;;;;;1.20;1.00;;;10.50;99.90;;;;;;5058741;28;20192;-83
2022/02/14 07:00:47;;;;;;;1.02;1.02;;;10.40;99.90;;;;;;5076060;28;20291;-82
2022/02/14 07:03:13;;;;;;;1.63;1.52;;;10.40;99.90;;;;;;5076283;28;20182;-83
2022/02/14 07:05:40;;;;;;;3.85;1.63;;;10.50;99.90;;;;;;5075469;28;20204;-83
2022/02/14 07:08:06;;;;;;;7.03;1.83;;;10.40;99.90;;;;;;5075708;28;20170;-81
2022/02/14 07:10:32;;;;;;;2.30;2.10;;;10.30;99.90;;;;;;5076891;28;20527;-82
2022/02/14 07:12:58;;;;;;;3.28;1.65;;;10.40;99.90;;;;;;5075036;28;20266;-81
2022/02/14 07:15:24;;;;;;;3.15;1.38;;;10.50;99.90;;;;;;5056729;28;20662;-81
2022/02/14 07:17:50;;;;;;;1.83;1.50;;;10.40;99.90;;;;;;5075971;28;20163;-85
2022/02/14 07:20:16;;;;;;;3.67;1.40;;;10.40;99.90;;;;;;5077670;28;20202;-86
2022/02/14 07:22:42;;;;;;;2.97;1.20;;;10.50;99.90;;;;;;5076624;28;20162;-86
2022/02/14 07:25:09;;;;;;;6.53;1.20;;;10.40;99.90;;;;;;5075858;28;20173;-79
2022/02/14 07:27:37;;;;;;;1.73;1.25;;;10.30;99.90;;;;;;5076747;28;20183;-86
2022/02/14 07:30:08;;;;;;;2.30;1.20;;;10.40;99.90;;;;;;5056174;28;20163;-79
2022/02/14 07:32:34;;;;;;;2.83;1.30;;;10.40;99.90;;;;;;5062403;28;20189;-81
2022/02/14 07:35:00;;;;;;;1.17;0.90;;;10.50;99.90;;;;;;5073352;28;20619;-82
2022/02/14 07:37:26;;;;;;;1.55;0.77;;;10.50;99.90;;;;;;5063595;28;20158;-86
2022/02/14 07:39:52;;;;;;;1.20;0.80;;;10.30;99.90;;;;;;5067611;28;20210;-88
2022/02/14 07:42:18;;;;;;;1.13;0.90;;;10.40;99.90;;;;;;5075332;28;20249;-89
2022/02/14 07:44:44;;;;;;;0.98;0.82;;;10.50;99.90;;;;;;5074331;28;20218;-77
2022/02/14 07:47:10;;;;;;;3.85;1.05;;;10.60;99.90;;;;;;5068729;28;20520;-90
2022/02/14 07:49:36;;;;;;;1.20;0.88;;;10.50;99.90;;;;;;5055657;28;20179;-82
2022/02/14 07:52:02;;;;;;;1.38;0.98;;;10.50;99.90;;;;;;5036939;28;20175;-91
2022/02/14 07:54:28;;;;;;;2.20;1.08;;;10.50;99.90;;;;;;5052900;28;20187;-80
2022/02/14 07:56:54;;;;;;;1.45;0.85;;;10.40;99.90;;;;;;5054511;28;20650;-85
2022/02/14 07:59:19;;;;;;;0.98;0.60;;;10.30;99.90;;;;;;5054071;28;20246;-85
2022/02/14 08:01:45;;;;;;;1.95;1.10;;;10.40;99.90;;;;;;5054080;28;20324;-84
2022/02/14 08:04:11;;;;;;;0.70;0.70;;;10.40;99.90;;;;;;5054351;28;20211;-79
2022/02/14 08:06:37;;;;;;;3.17;0.57;;;10.30;99.90;;;;;;5053948;28;20178;-81
2022/02/14 08:09:06;;;;;;;2.97;0.75;;;10.20;99.90;;;;;;5068830;28;20158;-79
2022/02/14 08:11:32;;;;;;;1.92;0.80;;;10.20;99.90;;;;;;5084577;28;20196;-86
2022/02/14 08:13:59;;;;;;;0.85;0.57;;;10.30;99.90;;;;;;5080031;28;20194;-79
2022/02/14 08:16:24;;;;;;;1.48;0.60;;;10.30;99.90;;;;;;5078157;28;20166;-78
2022/02/14 08:18:50;;;;;;;1.00;0.60;;;10.20;99.90;;;;;;5068955;28;20659;-78
2022/02/14 08:21:16;;;;;;;2.38;0.50;;;10.20;99.90;;;;;;5054090;28;20198;-87
2022/02/14 08:23:41;;;;;;;0.50;0.50;;;10.20;99.90;;;;;;5054580;28;20183;-81
2022/02/14 08:26:07;;;;;;;1.35;0.90;;;10.20;99.90;;;;;;5055075;28;20171;-86
2022/02/14 08:28:33;;;;;;;0.60;0.60;;;10.20;99.90;;;;;;5054125;28;20183;-86
2022/02/14 08:30:59;;;;;;;0.52;0.52;;;10.30;99.90;;;;;;5035743;28;20262;-81
2022/02/14 08:33:25;;;;;;;2.67;0.57;;;10.40;99.90;;;;;;5059964;28;20198;-88
2022/02/14 08:35:51;;;;;;;3.08;0.60;;;10.60;99.90;;;;;;5054284;28;20183;-83
2022/02/14 08:38:17;;;;;;;1.48;0.55;;;10.50;99.90;;;;;;5036176;28;20254;-84
2022/02/14 08:40:43;;;;;;;0.90;0.55;;;10.30;99.90;;;;;;5053779;28;20290;-89
2022/02/14 08:43:09;;;;;;;1.83;0.50;;;10.20;99.90;;;;;;5055263;28;20207;-86
2022/02/14 08:45:34;;;;;;;2.50;0.60;;;10.30;99.90;;;;;;5056577;28;20256;-90
2022/02/14 08:48:01;;;;;;;2.40;0.77;;;10.30;99.90;;;;;;5061614;28;20175;-85
2022/02/14 08:50:29;;;;;;;0.60;0.60;;;10.40;99.90;;;;;;5053307;28;20170;-84
2022/02/14 08:52:55;;;;;;;3.58;0.60;;;10.40;99.90;;;;;;5052145;28;20186;-81
2022/02/14 08:55:21;;;;;;;0.88;0.60;;;10.70;99.90;;;;;;5068419;28;20561;-82
2022/02/14 08:57:47;;;;;;;3.03;0.70;;;10.70;99.90;;;;;;5072371;28;20205;-85
2022/02/14 09:00:13;;;;;;;4.70;1.15;;;10.70;99.90;;;;;;5072425;28;20194;-83
2022/02/14 09:02:39;;;;;;;2.30;0.68;;;10.80;99.90;;;;;;5071771;28;20222;-84
2022/02/14 09:05:05;;;;;;;6.80;1.05;;;10.80;99.90;;;;;;5059728;28;20217;-83
2022/02/14 09:07:31;;;;;;;36.78;2.35;;;10.90;99.90;;;;;;5052174;28;20178;-79
2022/02/14 09:09:57;;;;;;;1.40;0.80;;;10.90;99.90;;;;;;5051312;28;20504;-78
2022/02/14 09:12:24;;;;;;;2.05;1.05;;;10.90;99.90;;;;;;5052048;28;20159;-78
2022/02/14 09:14:52;;;;;;;1.98;0.88;;;10.90;99.90;;;;;;5053320;28;20321;-80
2022/02/14 09:17:18;;;;;;;4.68;1.50;;;10.70;99.90;;;;;;5073023;28;20167;-77
2022/02/14 09:19:44;;;;;;;3.65;1.85;;;10.70;99.90;;;;;;5072197;28;20201;-86
2022/02/14 09:22:11;;;;;;;1.77;1.55;;;10.70;99.90;;;;;;5071352;28;20174;-78
2022/02/14 09:24:37;;;;;;;2.05;1.20;;;10.70;99.90;;;;;;5053478;28;20187;-77
2022/02/14 09:27:02;;;;;;;1.02;0.85;;;10.70;99.90;;;;;;5072509;28;20167;-79
2022/02/14 09:29:30;;;;;;;5.55;0.90;;;10.50;99.90;;;;;;5072126;28;20650;-81
2022/02/14 09:31:56;;;;;;;1.95;0.80;;;10.60;99.90;;;;;;5072212;28;20167;-79
2022/02/14 09:34:22;;;;;;;1.25;0.80;;;10.80;99.90;;;;;;5072112;28;20182;-78
2022/02/14 09:36:48;;;;;;;1.80;1.17;;;11.10;99.90;;;;;;5072154;28;20180;-83
2022/02/14 09:39:13;;;;;;;1.77;0.98;;;11.40;99.90;;;;;;5072508;28;20646;-82
2022/02/14 09:41:40;;;;;;;1.42;0.70;;;11.30;99.90;;;;;;5072228;28;20202;-78
2022/02/14 09:44:07;;;;;;;4.05;1.45;;;11.00;99.90;;;;;;5071963;28;20236;-78
2022/02/14 09:46:35;;;;;;;1.02;1.00;;;10.90;99.90;;;;;;5071873;28;20171;-79
2022/02/14 09:49:03;;;;;;;1.42;0.98;;;10.80;99.90;;;;;;5071803;28;20155;-78
2022/02/14 09:51:30;;;;;;;14.25;1.33;;;10.70;99.90;;;;;;5072252;28;20170;-78
2022/02/14 09:53:57;;;;;;;3.28;1.58;;;11.10;99.90;;;;;;5072237;28;20219;-86
2022/02/14 09:56:23;;;;;;;3.33;1.23;;;11.30;99.90;;;;;;5072619;28;20647;-79
2022/02/14 09:58:49;;;;;;;4.28;1.50;;;11.30;99.90;;;;;;5072416;28;20273;-81
2022/02/14 10:01:17;;;;;;;7.22;1.70;;;11.50;99.90;;;;;;5071428;28;20218;-84
2022/02/14 10:03:53;;;;;;;15.18;1.85;;;11.30;99.90;;;;;;5071968;28;20182;-86
2022/02/14 10:06:26;;;;;;;2.10;0.90;;;11.30;99.90;;;;;;5072443;28;20166;-84
2022/02/14 10:09:14;;;;;;;6.03;1.20;;;11.40;99.90;;;;;;5072334;28;20190;-84
2022/02/14 10:12:07;;;;;;;3.05;0.90;;;11.50;99.90;;;;;;5075977;28;20166;-83
2022/02/14 10:14:33;;;;;;;0.93;0.80;;;11.50;99.90;;;;;;5066039;28;20207;-85
2022/02/14 10:17:05;;;;;;;6.30;1.00;;;11.60;99.90;;;;;;5075771;28;20197;-86
2022/02/14 10:19:33;;;;;;;2.00;0.93;;;11.70;99.90;;;;;;5075891;28;20175;-86
2022/02/14 10:21:59;;;;;;;5.07;1.13;;;11.70;99.90;;;;;;5076372;28;20304;-86
2022/02/14 10:24:25;;;;;;;4.05;1.33;;;11.50;99.90;;;;;;5076364;28;20220;-86
2022/02/14 10:26:53;;;;;;;6.57;1.63;;;11.40;99.90;;;;;;5076115;28;20227;-86
2022/02/14 10:29:22;;;;;;;3.28;1.58;;;11.30;99.90;;;;;;5075837;28;20565;-83
2022/02/14 10:31:59;;;;;;;3.38;1.10;;;11.30;99.90;;;;;;5057476;28;20189;-77
2022/02/14 10:34:41;;;;;;;3.17;1.35;;;11.20;99.90;;;;;;5075708;28;20600;-81
2022/02/14 10:37:10;;;;;;;1.98;1.00;;;11.30;99.90;;;;;;5089319;28;20175;-78
2022/02/14 10:39:36;;;;;;;6.93;1.17;;;11.30;99.90;;;;;;5094604;28;20177;-80
2022/02/14 10:42:07;;;;;;;9.07;0.90;;;11.30;99.90;;;;;;5096451;28;20163;-79
2022/02/14 10:47:24;;;;;;;4.35;1.20;;;11.20;99.90;;;;;;5076739;28;20181;-78
2022/02/14 10:50:13;;;;;;;2.53;1.17;;;11.20;99.90;;;;;;5056733;28;20166;-80
2022/02/14 10:52:53;;;;;;;3.45;1.00;;;11.50;99.90;;;;;;5057997;28;20596;-88
2022/02/14 10:55:25;;;;;;;3.42;0.80;;;11.60;99.90;;;;;;5058198;28;20180;-84
2022/02/14 10:57:51;;;;;;;2.17;0.77;;;11.70;99.90;;;;;;5069775;28;20654;-84
2022/02/14 11:00:22;;;;;;;3.83;0.93;;;11.90;99.90;;;;;;5058624;28;20207;-78
2022/02/14 11:02:51;;;;;;;2.58;0.80;;;11.90;99.90;;;;;;5054265;28;20178;-79
2022/02/14 11:05:19;;;;;;;6.32;1.17;;;11.90;99.90;;;;;;5053762;28;20167;-83
2022/02/14 11:07:45;;;;;;;3.00;1.60;;;12.10;99.90;;;;;;5054151;28;20171;-82
2022/02/14 11:10:14;;;;;;;2.10;0.80;;;12.10;99.90;;;;;;5053852;28;20630;-77
2022/02/14 11:12:59;;;;;;;4.57;1.20;;;12.10;99.90;;;;;;5067422;28;20265;-83
2022/02/14 11:15:30;;;;;;;5.25;1.20;;;12.00;99.90;;;;;;5074574;28;20653;-81
2022/02/14 11:18:03;;;;;;;2.55;1.02;;;11.90;99.90;;;;;;5056440;28;20166;-86
2022/02/14 11:20:29;;;;;;;4.82;1.33;;;11.90;99.90;;;;;;5070498;28;20203;-84
2022/02/14 11:22:59;;;;;;;9.63;3.03;;;11.90;99.90;;;;;;5054506;28;20415;-79
2022/02/14 11:25:32;;;;;;;2.58;1.33;;;12.00;99.90;;;;;;5036426;28;20602;-82
2022/02/14 11:28:31;;;;;;;8.27;1.40;;;12.00;99.90;;;;;;5053792;28;20187;-88
2022/02/14 11:31:17;;;;;;;4.10;1.70;;;11.90;99.90;;;;;;5054283;28;20273;-90
2022/02/14 11:33:59;;;;;;;2.25;1.42;;;11.90;99.90;;;;;;5055047;28;20186;-90
2022/02/14 11:36:27;;;;;;;3.92;1.50;;;11.90;99.90;;;;;;5054923;28;20163;-84
2022/02/14 11:39:00;;;;;;;4.28;1.23;;;11.90;99.90;;;;;;5054881;28;20176;-91
2022/02/14 11:41:27;;;;;;;8.52;1.33;;;11.70;99.90;;;;;;5054878;28;20210;-84
2022/02/14 11:43:55;;;;;;;4.22;1.48;;;11.60;99.90;;;;;;5054047;28;20183;-78
2022/02/14 11:46:26;;;;;;;6.97;1.90;;;11.60;99.90;;;;;;5054537;28;20305;-86
2022/02/14 11:49:04;;;;;;;10.95;1.98;;;11.80;99.90;;;;;;5036406;28;20159;-86
2022/02/14 11:51:37;;;;;;;9.73;1.60;;;11.80;99.90;;;;;;5054187;28;20177;-79
2022/02/14 11:54:24;;;;;;;7.63;1.27;;;11.90;99.90;;;;;;5053970;28;20274;-85
2022/02/14 11:56:49;;;;;;;6.60;1.30;;;12.10;99.90;;;;;;5054052;28;20183;-87
2022/02/14 11:59:27;;;;;;;7.13;1.38;;;12.40;99.90;;;;;;5054388;28;20167;-84
2022/02/14 12:01:52;;;;;;;5.25;1.45;;;12.50;99.90;;;;;;5054057;28;20217;-86
2022/02/14 12:04:40;;;;;;;4.75;2.05;;;12.50;99.90;;;;;;5054002;28;20191;-88
2022/02/14 12:07:24;;;;;;;9.77;1.15;;;12.30;99.90;;;;;;5054606;28;20171;-88
2022/02/14 12:10:03;;;;;;;7.32;1.80;;;12.20;99.90;;;;;;5054874;28;20217;-88
2022/02/14 12:12:49;;;;;;;4.03;1.55;;;12.10;99.90;;;;;;5058496;28;20170;-89
2022/02/14 12:20:49;;;;;;;5.30;1.00;;;12.10;99.90;;;;;;5054466;28;20302;-89
2022/02/14 12:23:27;;;;;;;7.47;1.25;;;12.00;99.90;;;;;;5054413;28;20187;-89
2022/02/14 12:25:52;;;;;;;5.72;1.10;;;12.10;99.90;;;;;;5054358;28;20213;-90
2022/02/14 12:28:18;;;;;;;12.85;1.35;;;11.90;99.90;;;;;;5054571;28;20191;-84
2022/02/14 12:30:45;;;;;;;6.78;1.92;;;11.70;99.90;;;;;;5055058;28;20682;-79
2022/02/14 12:33:14;;;;;;;3.10;1.02;;;11.70;99.90;;;;;;5052339;28;20208;-77
2022/02/14 12:35:43;;;;;;;7.85;1.60;;;11.80;99.90;;;;;;5067474;28;20232;-86
2022/02/14 12:38:09;;;;;;;7.93;1.05;;;11.90;99.90;;;;;;5073045;28;20630;-79
2022/02/14 12:40:59;;;;;;;2.30;1.10;;;12.10;99.90;;;;;;5072395;28;20202;-78
2022/02/14 12:43:37;;;;;;;9.82;1.63;;;12.40;99.90;;;;;;5073325;28;20198;-91
2022/02/14 12:46:12;;;;;;;5.20;1.10;;;12.50;99.90;;;;;;5073149;28;20504;-89
2022/02/14 12:48:43;;;;;;;14.20;1.50;;;12.40;99.90;;;;;;5072801;28;20257;-83
2022/02/14 12:51:12;;;;;;;5.45;1.08;;;12.20;99.90;;;;;;5064277;28;20188;-81
2022/02/14 12:53:49;;;;;;;8.20;1.63;;;11.90;99.90;;;;;;5053336;28;20258;-84
2022/02/14 12:56:20;;;;;;;3.88;1.90;;;11.80;99.90;;;;;;5059929;28;20170;-87